sensor_id;sensor_type;location;lat;lon;timestamp;temperature;humidity
28189;DHT22;15471;51.166;4.470;2022-09-21T00:00:42;9.40;99.90
28189;DHT22;15471;51.166;4.470;2022-09-21T00:03:10;9.40;99.90
28189;DHT22;15471;51.166;4.470;2022-09-21T00:05:36;9.40;99.90
28189;DHT22;15471;51.166;4.470;2022-09-21T00:08:04;9.40;99.90
28189;DHT22;15471;51.166;4.470;2022-09-21T00:10:30;9.30;99.90
28189;DHT22;15471;51.166;4.470;2022-09-21T00:12:58;9.30;99.90
28189;DHT22;15471;51.166;4.470;2022-09-21T00:15:25;9.30;99.90
28189;DHT22;15471;51.166;4.470;2022-09-21T00:17:52;9.30;99.90
28189;DHT22;15471;51.166;4.470;2022-09-21T00:20:19;9.30;99.90
28189;DHT22;15471;51.166;4.470;2022-09-21T00:22:46;9.30;99.90
28189;DHT22;15471;51.166;4.470;2022-09-21T00:25:13;9.30;99.90
28189;DHT22;15471;51.166;4.470;2022-09-21T00:27:40;9.20;99.90
28189;DHT22;15471;51.166;4.470;2022-09-21T00:30:07;9.30;99.90
28189;DHT22;15471;51.166;4.470;2022-09-21T00:32:35;9.30;99.90
28189;DHT22;15471;51.166;4.470;2022-09-21T00:35:03;9.30;99.90
28189;DHT22;15471;51.166;4.470;2022-09-21T00:37:30;9.40;99.90
28189;DHT22;15471;51.166;4.470;2022-09-21T00:39:56;9.40;99.90
28189;DHT22;15471;51.166;4.470;2022-09-21T00:42:25;9.40;99.90
28189;DHT22;15471;51.166;4.470;2022-09-21T00:44:52;9.40;99.90
28189;DHT22;15471;51.166;4.470;2022-09-21T00:47:22;9.30;99.90
28189;DHT22;15471;51.166;4.470;2022-09-21T00:49:51;9.30;99.90
28189;DHT22;15471;51.166;4.470;2022-09-21T00:52:20;9.20;99.90
28189;DHT22;15471;51.166;4.470;2022-09-21T00:54:53;9.10;99.90
28189;DHT22;15471;51.166;4.470;2022-09-21T00:57:24;9.10;99.90
28189;DHT22;15471;51.166;4.470;2022-09-21T00:59:55;9.10;99.90
28189;DHT22;15471;51.166;4.470;2022-09-21T01:02:22;9.10;99.90
28189;DHT22;15471;51.166;4.470;2022-09-21T01:04:51;9.10;99.90
28189;DHT22;15471;51.166;4.470;2022-09-21T01:07:21;9.10;99.90
28189;DHT22;15471;51.166;4.470;2022-09-21T01:09:51;9.10;99.90
28189;DHT22;15471;51.166;4.470;2022-09-21T01:15:39;9.10;99.90
28189;DHT22;15471;51.166;4.470;2022-09-21T01:18:35;9.00;99.90
28189;DHT22;15471;51.166;4.470;2022-09-21T01:21:23;9.00;99.90
28189;DHT22;15471;51.166;4.470;2022-09-21T01:24:16;9.00;99.90
28189;DHT22;15471;51.166;4.470;2022-09-21T01:26:54;9.00;99.90
28189;DHT22;15471;51.166;4.470;2022-09-21T01:29:41;9.00;99.90
28189;DHT22;15471;51.166;4.470;2022-09-21T01:32:26;9.00;99.90
28189;DHT22;15471;51.166;4.470;2022-09-21T01:35:02;9.00;99.90
28189;DHT22;15471;51.166;4.470;2022-09-21T01:37:42;9.00;99.90
28189;DHT22;15471;51.166;4.470;2022-09-21T01:40:23;9.00;99.90
28189;DHT22;15471;51.166;4.470;2022-09-21T01:42:52;8.90;99.90
28189;DHT22;15471;51.166;4.470;2022-09-21T01:45:24;8.90;99.90
28189;DHT22;15471;51.166;4.470;2022-09-21T01:47:54;8.90;99.90
28189;DHT22;15471;51.166;4.470;2022-09-21T01:50:23;8.90;99.90
28189;DHT22;15471;51.166;4.470;2022-09-21T01:53:02;8.80;99.90
28189;DHT22;15471;51.166;4.470;2022-09-21T01:55:51;8.80;99.90
28189;DHT22;15471;51.166;4.470;2022-09-21T02:00:53;8.70;99.90
28189;DHT22;15471;51.166;4.470;2022-09-21T02:03:39;8.70;99.90
28189;DHT22;15471;51.166;4.470;2022-09-21T02:06:07;8.70;99.90
28189;DHT22;15471;51.166;4.470;2022-09-21T02:08:35;8.70;99.90
28189;DHT22;15471;51.166;4.470;2022-09-21T02:11:04;8.70;99.90
28189;DHT22;15471;51.166;4.470;2022-09-21T02:13:34;8.70;99.90
28189;DHT22;15471;51.166;4.470;2022-09-21T02:19:12;8.80;99.90
28189;DHT22;15471;51.166;4.470;2022-09-21T02:22:06;8.80;99.90
28189;DHT22;15471;51.166;4.470;2022-09-21T02:27:36;8.80;99.90
28189;DHT22;15471;51.166;4.470;2022-09-21T02:30:19;8.70;99.90
28189;DHT22;15471;51.166;4.470;2022-09-21T02:33:12;8.70;99.90
28189;DHT22;15471;51.166;4.470;2022-09-21T02:38:43;8.60;99.90
28189;DHT22;15471;51.166;4.470;2022-09-21T02:41:18;8.60;99.90
28189;DHT22;15471;51.166;4.470;2022-09-21T02:43:52;8.60;99.90
28189;DHT22;15471;51.166;4.470;2022-09-21T02:46:48;8.50;99.90
28189;DHT22;15471;51.166;4.470;2022-09-21T02:49:29;8.50;99.90
28189;DHT22;15471;51.166;4.470;2022-09-21T02:51:58;8.50;99.90
28189;DHT22;15471;51.166;4.470;2022-09-21T02:54:29;8.50;99.90
28189;DHT22;15471;51.166;4.470;2022-09-21T02:56:57;8.50;99.90
28189;DHT22;15471;51.166;4.470;2022-09-21T02:59:24;8.60;99.90
28189;DHT22;15471;51.166;4.470;2022-09-21T03:01:51;8.60;99.90
28189;DHT22;15471;51.166;4.470;2022-09-21T03:04:18;8.50;99.90
28189;DHT22;15471;51.166;4.470;2022-09-21T03:06:44;8.60;99.90
28189;DHT22;15471;51.166;4.470;2022-09-21T03:09:10;8.60;99.90
28189;DHT22;15471;51.166;4.470;2022-09-21T03:11:36;8.40;99.90
28189;DHT22;15471;51.166;4.470;2022-09-21T03:14:02;8.30;99.90
28189;DHT22;15471;51.166;4.470;2022-09-21T03:16:34;8.20;99.90
28189;DHT22;15471;51.166;4.470;2022-09-21T03:19:00;8.20;99.90
28189;DHT22;15471;51.166;4.470;2022-09-21T03:21:26;8.20;99.90
28189;DHT22;15471;51.166;4.470;2022-09-21T03:23:52;8.30;99.90
28189;DHT22;15471;51.166;4.470;2022-09-21T03:26:18;8.30;99.90
28189;DHT22;15471;51.166;4.470;2022-09-21T03:28:48;8.30;99.90
28189;DHT22;15471;51.166;4.470;2022-09-21T03:31:15;8.30;99.90
28189;DHT22;15471;51.166;4.470;2022-09-21T03:33:41;8.20;99.90
28189;DHT22;15471;51.166;4.470;2022-09-21T03:36:07;8.10;99.90
28189;DHT22;15471;51.166;4.470;2022-09-21T03:38:33;8.10;99.90
28189;DHT22;15471;51.166;4.470;2022-09-21T03:40:59;8.20;99.90
28189;DHT22;15471;51.166;4.470;2022-09-21T03:43:25;8.20;99.90
28189;DHT22;15471;51.166;4.470;2022-09-21T03:45:52;8.30;99.90
28189;DHT22;15471;51.166;4.470;2022-09-21T03:48:18;8.30;99.90
28189;DHT22;15471;51.166;4.470;2022-09-21T03:50:44;8.20;99.90
28189;DHT22;15471;51.166;4.470;2022-09-21T03:53:10;8.10;99.90
28189;DHT22;15471;51.166;4.470;2022-09-21T03:55:36;8.10;99.90
28189;DHT22;15471;51.166;4.470;2022-09-21T03:58:02;8.10;99.90
28189;DHT22;15471;51.166;4.470;2022-09-21T04:00:29;8.10;99.90
28189;DHT22;15471;51.166;4.470;2022-09-21T04:02:55;8.10;99.90
28189;DHT22;15471;51.166;4.470;2022-09-21T04:05:22;8.10;99.90
28189;DHT22;15471;51.166;4.470;2022-09-21T04:07:48;8.20;99.90
28189;DHT22;15471;51.166;4.470;2022-09-21T04:10:17;8.20;99.90
28189;DHT22;15471;51.166;4.470;2022-09-21T04:12:44;8.20;99.90
28189;DHT22;15471;51.166;4.470;2022-09-21T04:15:17;8.30;99.90
28189;DHT22;15471;51.166;4.470;2022-09-21T04:17:49;8.30;99.90
28189;DHT22;15471;51.166;4.470;2022-09-21T04:20:16;8.30;99.90
28189;DHT22;15471;51.166;4.470;2022-09-21T04:22:42;8.30;99.90
28189;DHT22;15471;51.166;4.470;2022-09-21T04:25:10;8.20;99.90
28189;DHT22;15471;51.166;4.470;2022-09-21T04:27:37;8.30;99.90
28189;DHT22;15471;51.166;4.470;2022-09-21T04:30:04;8.30;99.90
28189;DHT22;15471;51.166;4.470;2022-09-21T04:32:30;8.40;99.90
28189;DHT22;15471;51.166;4.470;2022-09-21T04:34:56;8.50;99.90
28189;DHT22;15471;51.166;4.470;2022-09-21T04:37:23;8.50;99.90
28189;DHT22;15471;51.166;4.470;2022-09-21T04:39:49;8.60;99.90
28189;DHT22;15471;51.166;4.470;2022-09-21T04:42:15;8.50;99.90
28189;DHT22;15471;51.166;4.470;2022-09-21T04:44:41;8.60;99.90
28189;DHT22;15471;51.166;4.470;2022-09-21T04:47:07;8.60;99.90
28189;DHT22;15471;51.166;4.470;2022-09-21T04:49:33;8.60;99.90
28189;DHT22;15471;51.166;4.470;2022-09-21T04:52:00;8.60;99.90
28189;DHT22;15471;51.166;4.470;2022-09-21T04:54:26;8.60;99.90
28189;DHT22;15471;51.166;4.470;2022-09-21T04:56:52;8.60;99.90
28189;DHT22;15471;51.166;4.470;2022-09-21T04:59:18;8.50;99.90
28189;DHT22;15471;51.166;4.470;2022-09-21T05:01:44;8.50;99.90
28189;DHT22;15471;51.166;4.470;2022-09-21T05:04:10;8.50;99.90
28189;DHT22;15471;51.166;4.470;2022-09-21T05:06:36;8.40;99.90
28189;DHT22;15471;51.166;4.470;2022-09-21T05:09:02;8.40;99.90
28189;DHT22;15471;51.166;4.470;2022-09-21T05:11:47;8.40;99.90
28189;DHT22;15471;51.166;4.470;2022-09-21T05:14:13;8.40;99.90
28189;DHT22;15471;51.166;4.470;2022-09-21T05:16:39;8.40;99.90
28189;DHT22;15471;51.166;4.470;2022-09-21T05:19:05;8.40;99.90
28189;DHT22;15471;51.166;4.470;2022-09-21T05:21:32;8.30;99.90
28189;DHT22;15471;51.166;4.470;2022-09-21T05:23:59;8.20;99.90
28189;DHT22;15471;51.166;4.470;2022-09-21T05:26:25;8.20;99.90
28189;DHT22;15471;51.166;4.470;2022-09-21T05:28:51;8.20;99.90
28189;DHT22;15471;51.166;4.470;2022-09-21T05:34:02;8.20;99.90
28189;DHT22;15471;51.166;4.470;2022-09-21T05:39:20;8.10;99.90
28189;DHT22;15471;51.166;4.470;2022-09-21T05:41:46;8.10;99.90
28189;DHT22;15471;51.166;4.470;2022-09-21T05:44:13;8.10;99.90
28189;DHT22;15471;51.166;4.470;2022-09-21T05:47:09;8.10;99.90
28189;DHT22;15471;51.166;4.470;2022-09-21T05:52:33;8.10;99.90
28189;DHT22;15471;51.166;4.470;2022-09-21T06:00:18;8.10;99.90
28189;DHT22;15471;51.166;4.470;2022-09-21T06:02:50;8.20;99.90
28189;DHT22;15471;51.166;4.470;2022-09-21T06:05:19;8.30;99.90
28189;DHT22;15471;51.166;4.470;2022-09-21T06:07:45;8.30;99.90
28189;DHT22;15471;51.166;4.470;2022-09-21T06:10:12;8.40;99.90
28189;DHT22;15471;51.166;4.470;2022-09-21T06:12:39;8.50;99.90
28189;DHT22;15471;51.166;4.470;2022-09-21T06:15:06;8.60;99.90
28189;DHT22;15471;51.166;4.470;2022-09-21T06:17:32;8.50;99.90
28189;DHT22;15471;51.166;4.470;2022-09-21T06:19:58;8.60;99.90
28189;DHT22;15471;51.166;4.470;2022-09-21T06:22:24;8.70;99.90
28189;DHT22;15471;51.166;4.470;2022-09-21T06:24:50;8.80;99.90
28189;DHT22;15471;51.166;4.470;2022-09-21T06:27:16;9.10;99.90
28189;DHT22;15471;51.166;4.470;2022-09-21T06:29:42;9.20;99.90
28189;DHT22;15471;51.166;4.470;2022-09-21T06:32:08;9.30;99.90
28189;DHT22;15471;51.166;4.470;2022-09-21T06:34:34;9.40;99.90
28189;DHT22;15471;51.166;4.470;2022-09-21T06:37:00;9.50;99.90
28189;DHT22;15471;51.166;4.470;2022-09-21T06:39:26;9.50;99.90
28189;DHT22;15471;51.166;4.470;2022-09-21T06:41:52;9.60;99.90
28189;DHT22;15471;51.166;4.470;2022-09-21T06:44:18;9.60;99.90
28189;DHT22;15471;51.166;4.470;2022-09-21T06:46:44;9.70;99.90
28189;DHT22;15471;51.166;4.470;2022-09-21T06:49:10;9.80;99.90
28189;DHT22;15471;51.166;4.470;2022-09-21T06:51:36;9.80;99.90
28189;DHT22;15471;51.166;4.470;2022-09-21T06:54:02;9.90;99.90
28189;DHT22;15471;51.166;4.470;2022-09-21T06:56:28;10.00;99.90
28189;DHT22;15471;51.166;4.470;2022-09-21T06:58:54;10.10;99.90
28189;DHT22;15471;51.166;4.470;2022-09-21T07:01:20;10.10;99.90
28189;DHT22;15471;51.166;4.470;2022-09-21T07:03:50;10.10;99.90
28189;DHT22;15471;51.166;4.470;2022-09-21T07:06:17;10.20;99.90
28189;DHT22;15471;51.166;4.470;2022-09-21T07:08:43;10.30;99.90
28189;DHT22;15471;51.166;4.470;2022-09-21T07:11:11;10.40;99.90
28189;DHT22;15471;51.166;4.470;2022-09-21T07:13:38;10.60;99.90
28189;DHT22;15471;51.166;4.470;2022-09-21T07:16:05;10.60;99.90
28189;DHT22;15471;51.166;4.470;2022-09-21T07:18:32;10.70;99.90
28189;DHT22;15471;51.166;4.470;2022-09-21T07:21:06;10.80;99.90
28189;DHT22;15471;51.166;4.470;2022-09-21T07:23:32;10.80;99.90
28189;DHT22;15471;51.166;4.470;2022-09-21T07:26:05;10.90;99.90
28189;DHT22;15471;51.166;4.470;2022-09-21T07:28:31;11.00;99.90
28189;DHT22;15471;51.166;4.470;2022-09-21T07:30:58;11.10;99.90
28189;DHT22;15471;51.166;4.470;2022-09-21T07:33:24;11.20;99.90
28189;DHT22;15471;51.166;4.470;2022-09-21T07:35:54;11.20;99.90
28189;DHT22;15471;51.166;4.470;2022-09-21T07:38:23;11.30;99.90
28189;DHT22;15471;51.166;4.470;2022-09-21T07:40:49;11.30;99.90
28189;DHT22;15471;51.166;4.470;2022-09-21T07:43:15;11.40;99.90
28189;DHT22;15471;51.166;4.470;2022-09-21T07:45:41;11.50;99.90
28189;DHT22;15471;51.166;4.470;2022-09-21T07:48:07;11.50;99.90
28189;DHT22;15471;51.166;4.470;2022-09-21T07:50:34;11.60;99.90
28189;DHT22;15471;51.166;4.470;2022-09-21T07:53:01;11.60;99.90
28189;DHT22;15471;51.166;4.470;2022-09-21T07:55:28;11.60;99.90
28189;DHT22;15471;51.166;4.470;2022-09-21T07:57:54;11.70;99.90
28189;DHT22;15471;51.166;4.470;2022-09-21T08:00:39;11.80;99.90
28189;DHT22;15471;51.166;4.470;2022-09-21T08:03:05;11.90;99.90
28189;DHT22;15471;51.166;4.470;2022-09-21T08:05:32;12.00;99.90
28189;DHT22;15471;51.166;4.470;2022-09-21T08:07:58;12.10;99.90
28189;DHT22;15471;51.166;4.470;2022-09-21T08:10:24;12.20;99.90
28189;DHT22;15471;51.166;4.470;2022-09-21T08:12:53;12.40;99.90
28189;DHT22;15471;51.166;4.470;2022-09-21T08:15:19;12.40;99.90
28189;DHT22;15471;51.166;4.470;2022-09-21T08:17:45;12.50;99.90
28189;DHT22;15471;51.166;4.470;2022-09-21T08:20:11;12.70;99.90
28189;DHT22;15471;51.166;4.470;2022-09-21T08:22:39;12.70;99.90
28189;DHT22;15471;51.166;4.470;2022-09-21T08:25:05;12.90;99.90
28189;DHT22;15471;51.166;4.470;2022-09-21T08:27:31;12.90;99.90
28189;DHT22;15471;51.166;4.470;2022-09-21T08:29:57;13.00;99.90
28189;DHT22;15471;51.166;4.470;2022-09-21T08:32:23;13.20;99.90
28189;DHT22;15471;51.166;4.470;2022-09-21T08:34:49;13.60;99.90
28189;DHT22;15471;51.166;4.470;2022-09-21T08:37:15;14.80;99.90
28189;DHT22;15471;51.166;4.470;2022-09-21T08:39:44;16.40;99.90
28189;DHT22;15471;51.166;4.470;2022-09-21T08:45:12;16.80;99.90
28189;DHT22;15471;51.166;4.470;2022-09-21T08:47:48;17.60;99.90
28189;DHT22;15471;51.166;4.470;2022-09-21T08:52:49;20.40;99.90
28189;DHT22;15471;51.166;4.470;2022-09-21T08:55:19;21.30;99.90
28189;DHT22;15471;51.166;4.470;2022-09-21T08:57:45;21.80;99.90
28189;DHT22;15471;51.166;4.470;2022-09-21T09:00:13;22.60;99.90
28189;DHT22;15471;51.166;4.470;2022-09-21T09:03:00;22.90;99.90
28189;DHT22;15471;51.166;4.470;2022-09-21T09:05:48;23.10;99.90
28189;DHT22;15471;51.166;4.470;2022-09-21T09:11:35;23.60;99.90
28189;DHT22;15471;51.166;4.470;2022-09-21T09:19:22;23.50;99.90
28189;DHT22;15471;51.166;4.470;2022-09-21T09:21:49;23.20;99.90
28189;DHT22;15471;51.166;4.470;2022-09-21T09:24:35;22.60;99.90
28189;DHT22;15471;51.166;4.470;2022-09-21T09:27:08;22.80;99.90
28189;DHT22;15471;51.166;4.470;2022-09-21T09:32:46;21.60;99.90
28189;DHT22;15471;51.166;4.470;2022-09-21T09:35:30;21.70;99.90
28189;DHT22;15471;51.166;4.470;2022-09-21T09:49:37;21.10;99.90
28189;DHT22;15471;51.166;4.470;2022-09-21T09:52:10;21.30;99.90
28189;DHT22;15471;51.166;4.470;2022-09-21T09:54:37;21.30;99.90
28189;DHT22;15471;51.166;4.470;2022-09-21T09:57:03;21.10;99.90
28189;DHT22;15471;51.166;4.470;2022-09-21T10:02:25;21.20;98.60
28189;DHT22;15471;51.166;4.470;2022-09-21T10:05:03;21.00;99.00
28189;DHT22;15471;51.166;4.470;2022-09-21T10:07:38;20.70;99.90
28189;DHT22;15471;51.166;4.470;2022-09-21T10:10:33;20.50;99.90
28189;DHT22;15471;51.166;4.470;2022-09-21T10:15:46;20.00;99.90
28189;DHT22;15471;51.166;4.470;2022-09-21T10:18:17;19.80;99.90
28189;DHT22;15471;51.166;4.470;2022-09-21T10:21:07;19.90;99.90
28189;DHT22;15471;51.166;4.470;2022-09-21T10:23:35;20.00;99.90
28189;DHT22;15471;51.166;4.470;2022-09-21T10:26:09;19.60;99.90
28189;DHT22;15471;51.166;4.470;2022-09-21T10:31:24;19.00;99.90
28189;DHT22;15471;51.166;4.470;2022-09-21T10:34:05;18.90;99.90
28189;DHT22;15471;51.166;4.470;2022-09-21T10:36:36;18.90;99.90
28189;DHT22;15471;51.166;4.470;2022-09-21T10:39:32;18.80;99.90
28189;DHT22;15471;51.166;4.470;2022-09-21T10:44:49;18.60;99.90
28189;DHT22;15471;51.166;4.470;2022-09-21T10:47:30;18.50;99.90
28189;DHT22;15471;51.166;4.470;2022-09-21T10:50:06;18.50;99.90
28189;DHT22;15471;51.166;4.470;2022-09-21T10:52:44;18.50;99.90
28189;DHT22;15471;51.166;4.470;2022-09-21T10:55:19;18.40;99.90
28189;DHT22;15471;51.166;4.470;2022-09-21T10:57:47;18.50;99.90
28189;DHT22;15471;51.166;4.470;2022-09-21T11:02:50;18.30;99.90
28189;DHT22;15471;51.166;4.470;2022-09-21T11:05:28;18.10;99.90
28189;DHT22;15471;51.166;4.470;2022-09-21T11:08:14;17.80;99.90
28189;DHT22;15471;51.166;4.470;2022-09-21T11:13:38;17.40;99.90
28189;DHT22;15471;51.166;4.470;2022-09-21T11:16:23;17.50;99.90
28189;DHT22;15471;51.166;4.470;2022-09-21T11:21:46;18.40;99.90
28189;DHT22;15471;51.166;4.470;2022-09-21T11:27:09;18.00;99.90
28189;DHT22;15471;51.166;4.470;2022-09-21T11:29:48;18.30;99.90
28189;DHT22;15471;51.166;4.470;2022-09-21T11:44:00;19.10;99.90
28189;DHT22;15471;51.166;4.470;2022-09-21T11:47:21;18.60;99.90
28189;DHT22;15471;51.166;4.470;2022-09-21T11:55:15;17.80;99.90
28189;DHT22;15471;51.166;4.470;2022-09-21T11:58:18;17.60;99.90
28189;DHT22;15471;51.166;4.470;2022-09-21T12:07:34;17.40;99.90
28189;DHT22;15471;51.166;4.470;2022-09-21T12:10:09;17.10;99.90
28189;DHT22;15471;51.166;4.470;2022-09-21T12:15:37;16.90;99.90
28189;DHT22;15471;51.166;4.470;2022-09-21T12:23:40;17.00;99.90
28189;DHT22;15471;51.166;4.470;2022-09-21T12:26:09;17.10;99.90
28189;DHT22;15471;51.166;4.470;2022-09-21T12:28:47;17.40;99.90
28189;DHT22;15471;51.166;4.470;2022-09-21T12:31:43;17.70;99.90
28189;DHT22;15471;51.166;4.470;2022-09-21T12:34:20;18.10;99.90
28189;DHT22;15471;51.166;4.470;2022-09-21T12:39:34;18.60;99.90
28189;DHT22;15471;51.166;4.470;2022-09-21T12:44:51;18.70;99.90
28189;DHT22;15471;51.166;4.470;2022-09-21T12:50:15;18.40;99.90
28189;DHT22;15471;51.166;4.470;2022-09-21T12:52:46;17.90;99.90
28189;DHT22;15471;51.166;4.470;2022-09-21T12:55:34;17.50;99.90
28189;DHT22;15471;51.166;4.470;2022-09-21T13:03:33;16.90;99.90
28189;DHT22;15471;51.166;4.470;2022-09-21T13:08:47;16.60;99.90
28189;DHT22;15471;51.166;4.470;2022-09-21T13:11:13;16.70;99.90
28189;DHT22;15471;51.166;4.470;2022-09-21T13:13:57;16.80;99.90
28189;DHT22;15471;51.166;4.470;2022-09-21T13:16:36;17.10;99.90
28189;DHT22;15471;51.166;4.470;2022-09-21T13:21:39;18.00;99.90
28189;DHT22;15471;51.166;4.470;2022-09-21T13:24:21;18.30;99.90
28189;DHT22;15471;51.166;4.470;2022-09-21T13:26:53;18.60;99.90
28189;DHT22;15471;51.166;4.470;2022-09-21T13:34:40;19.30;99.80
28189;DHT22;15471;51.166;4.470;2022-09-21T13:47:51;19.80;99.90
28189;DHT22;15471;51.166;4.470;2022-09-21T13:50:39;19.80;99.90
28189;DHT22;15471;51.166;4.470;2022-09-21T13:53:31;19.70;99.90
28189;DHT22;15471;51.166;4.470;2022-09-21T13:56:17;20.00;96.30
28189;DHT22;15471;51.166;4.470;2022-09-21T13:58:47;20.00;97.30
28189;DHT22;15471;51.166;4.470;2022-09-21T14:01:18;20.10;96.00
28189;DHT22;15471;51.166;4.470;2022-09-21T14:03:53;20.20;95.20
28189;DHT22;15471;51.166;4.470;2022-09-21T14:06:29;20.30;96.40
28189;DHT22;15471;51.166;4.470;2022-09-21T14:09:07;20.60;95.00
28189;DHT22;15471;51.166;4.470;2022-09-21T14:11:44;20.60;91.20
28189;DHT22;15471;51.166;4.470;2022-09-21T14:14:28;20.50;91.90
28189;DHT22;15471;51.166;4.470;2022-09-21T14:16:57;20.40;93.50
28189;DHT22;15471;51.166;4.470;2022-09-21T14:24:48;20.40;92.80
28189;DHT22;15471;51.166;4.470;2022-09-21T14:27:40;20.30;92.00
28189;DHT22;15471;51.166;4.470;2022-09-21T14:30:21;20.10;93.60
28189;DHT22;15471;51.166;4.470;2022-09-21T14:35:46;19.50;95.60
28189;DHT22;15471;51.166;4.470;2022-09-21T14:38:21;19.50;95.30
28189;DHT22;15471;51.166;4.470;2022-09-21T14:40:51;19.30;96.30
28189;DHT22;15471;51.166;4.470;2022-09-21T14:43:22;19.20;96.90
28189;DHT22;15471;51.166;4.470;2022-09-21T14:51:56;18.60;98.30
28189;DHT22;15471;51.166;4.470;2022-09-21T14:54:36;18.40;99.80
28189;DHT22;15471;51.166;4.470;2022-09-21T15:00:23;18.20;99.90
28189;DHT22;15471;51.166;4.470;2022-09-21T15:06:10;17.70;99.90
28189;DHT22;15471;51.166;4.470;2022-09-21T15:12:10;17.50;99.90
28189;DHT22;15471;51.166;4.470;2022-09-21T15:14:45;17.30;99.90
28189;DHT22;15471;51.166;4.470;2022-09-21T15:17:23;17.10;99.90
28189;DHT22;15471;51.166;4.470;2022-09-21T15:19:50;17.10;99.90
28189;DHT22;15471;51.166;4.470;2022-09-21T15:22:20;17.20;99.90
28189;DHT22;15471;51.166;4.470;2022-09-21T15:24:55;17.40;99.90
28189;DHT22;15471;51.166;4.470;2022-09-21T15:27:26;17.50;99.90
28189;DHT22;15471;51.166;4.470;2022-09-21T15:29:59;17.70;99.90
28189;DHT22;15471;51.166;4.470;2022-09-21T15:34:59;18.30;99.90
28189;DHT22;15471;51.166;4.470;2022-09-21T15:37:27;18.70;99.90
28189;DHT22;15471;51.166;4.470;2022-09-21T15:40:02;19.00;99.90
28189;DHT22;15471;51.166;4.470;2022-09-21T15:42:28;19.20;99.40
28189;DHT22;15471;51.166;4.470;2022-09-21T15:45:18;19.40;98.40
28189;DHT22;15471;51.166;4.470;2022-09-21T15:47:44;19.70;98.30
28189;DHT22;15471;51.166;4.470;2022-09-21T15:50:14;19.90;97.60
28189;DHT22;15471;51.166;4.470;2022-09-21T15:52:46;20.00;97.30
28189;DHT22;15471;51.166;4.470;2022-09-21T15:55:19;20.10;97.30
28189;DHT22;15471;51.166;4.470;2022-09-21T15:57:51;20.20;95.10
28189;DHT22;15471;51.166;4.470;2022-09-21T16:00:25;20.20;93.90
28189;DHT22;15471;51.166;4.470;2022-09-21T16:03:01;20.20;93.70
28189;DHT22;15471;51.166;4.470;2022-09-21T16:08:32;20.10;93.20
28189;DHT22;15471;51.166;4.470;2022-09-21T16:13:46;19.90;94.30
28189;DHT22;15471;51.166;4.470;2022-09-21T16:16:31;19.90;93.40
28189;DHT22;15471;51.166;4.470;2022-09-21T16:18:57;19.90;92.80
28189;DHT22;15471;51.166;4.470;2022-09-21T16:21:30;19.70;94.20
28189;DHT22;15471;51.166;4.470;2022-09-21T16:24:20;19.90;92.70
28189;DHT22;15471;51.166;4.470;2022-09-21T16:27:01;21.20;90.60
28189;DHT22;15471;51.166;4.470;2022-09-21T16:29:42;21.90;89.30
28189;DHT22;15471;51.166;4.470;2022-09-21T16:34:52;21.60;87.20
28189;DHT22;15471;51.166;4.470;2022-09-21T16:37:29;21.10;90.00
28189;DHT22;15471;51.166;4.470;2022-09-21T16:39:59;20.60;90.60
28189;DHT22;15471;51.166;4.470;2022-09-21T16:42:28;20.40;91.50
28189;DHT22;15471;51.166;4.470;2022-09-21T16:45:01;20.30;91.40
28189;DHT22;15471;51.166;4.470;2022-09-21T16:47:36;19.80;93.30
28189;DHT22;15471;51.166;4.470;2022-09-21T16:50:10;19.70;93.40
28189;DHT22;15471;51.166;4.470;2022-09-21T16:52:37;19.60;93.70
28189;DHT22;15471;51.166;4.470;2022-09-21T16:55:03;19.30;95.90
28189;DHT22;15471;51.166;4.470;2022-09-21T16:57:30;19.00;98.20
28189;DHT22;15471;51.166;4.470;2022-09-21T16:59:57;18.90;99.10
28189;DHT22;15471;51.166;4.470;2022-09-21T17:02:23;18.60;99.90
28189;DHT22;15471;51.166;4.470;2022-09-21T17:04:49;18.40;99.90
28189;DHT22;15471;51.166;4.470;2022-09-21T17:07:15;18.50;99.90
28189;DHT22;15471;51.166;4.470;2022-09-21T17:09:44;18.50;99.90
28189;DHT22;15471;51.166;4.470;2022-09-21T17:12:16;18.50;99.90
28189;DHT22;15471;51.166;4.470;2022-09-21T17:14:42;18.40;99.90
28189;DHT22;15471;51.166;4.470;2022-09-21T17:17:23;18.30;99.90
28189;DHT22;15471;51.166;4.470;2022-09-21T17:19:51;18.20;99.90
28189;DHT22;15471;51.166;4.470;2022-09-21T17:22:18;18.10;99.90
28189;DHT22;15471;51.166;4.470;2022-09-21T17:24:46;18.00;99.90
28189;DHT22;15471;51.166;4.470;2022-09-21T17:27:15;17.70;99.90
28189;DHT22;15471;51.166;4.470;2022-09-21T17:29:45;17.40;99.90
28189;DHT22;15471;51.166;4.470;2022-09-21T17:32:15;17.20;99.90
28189;DHT22;15471;51.166;4.470;2022-09-21T17:34:45;17.00;99.90
28189;DHT22;15471;51.166;4.470;2022-09-21T17:37:12;16.90;99.90
28189;DHT22;15471;51.166;4.470;2022-09-21T17:39:39;16.80;99.90
28189;DHT22;15471;51.166;4.470;2022-09-21T17:42:17;16.50;99.90
28189;DHT22;15471;51.166;4.470;2022-09-21T17:45:14;16.40;99.90
28189;DHT22;15471;51.166;4.470;2022-09-21T17:47:41;16.20;99.90
28189;DHT22;15471;51.166;4.470;2022-09-21T17:52:39;15.80;99.90
28189;DHT22;15471;51.166;4.470;2022-09-21T17:55:24;15.70;99.90
28189;DHT22;15471;51.166;4.470;2022-09-21T18:03:30;15.30;99.90
28189;DHT22;15471;51.166;4.470;2022-09-21T18:05:57;15.20;99.90
28189;DHT22;15471;51.166;4.470;2022-09-21T18:08:37;15.10;99.90
28189;DHT22;15471;51.166;4.470;2022-09-21T18:11:29;14.90;99.90
28189;DHT22;15471;51.166;4.470;2022-09-21T18:14:22;14.80;99.90
28189;DHT22;15471;51.166;4.470;2022-09-21T18:19:39;14.40;99.90
28189;DHT22;15471;51.166;4.470;2022-09-21T18:24:43;14.20;99.90
28189;DHT22;15471;51.166;4.470;2022-09-21T18:27:10;14.10;99.90
28189;DHT22;15471;51.166;4.470;2022-09-21T18:29:37;14.00;99.90
28189;DHT22;15471;51.166;4.470;2022-09-21T18:32:38;13.90;99.90
28189;DHT22;15471;51.166;4.470;2022-09-21T18:40:49;13.60;99.90
28189;DHT22;15471;51.166;4.470;2022-09-21T18:54:46;13.50;99.90
28189;DHT22;15471;51.166;4.470;2022-09-21T18:57:13;13.50;99.90
28189;DHT22;15471;51.166;4.470;2022-09-21T18:59:40;13.40;99.90
28189;DHT22;15471;51.166;4.470;2022-09-21T19:02:16;13.30;99.90
28189;DHT22;15471;51.166;4.470;2022-09-21T19:04:43;13.20;99.90
28189;DHT22;15471;51.166;4.470;2022-09-21T19:07:18;13.30;99.90
28189;DHT22;15471;51.166;4.470;2022-09-21T19:31:46;12.70;99.90
28189;DHT22;15471;51.166;4.470;2022-09-21T19:34:17;12.60;99.90
28189;DHT22;15471;51.166;4.470;2022-09-21T19:36:44;12.50;99.90
28189;DHT22;15471;51.166;4.470;2022-09-21T19:39:12;12.50;99.90
28189;DHT22;15471;51.166;4.470;2022-09-21T19:41:57;12.40;99.90
28189;DHT22;15471;51.166;4.470;2022-09-21T19:49:51;12.20;99.90
28189;DHT22;15471;51.166;4.470;2022-09-21T19:52:34;12.10;99.90
28189;DHT22;15471;51.166;4.470;2022-09-21T19:55:01;12.10;99.90
28189;DHT22;15471;51.166;4.470;2022-09-21T19:57:46;12.10;99.90
28189;DHT22;15471;51.166;4.470;2022-09-21T20:00:31;12.10;99.90
28189;DHT22;15471;51.166;4.470;2022-09-21T20:03:19;12.00;99.90
28189;DHT22;15471;51.166;4.470;2022-09-21T20:06:11;12.00;99.90